createdAt,value
2022-10-17T00:00:56.511Z,0.45
2022-10-17T00:03:23.617Z,0.68
2022-10-17T00:05:50.599Z,0.30
2022-10-17T00:08:19.023Z,0.60
2022-10-17T00:10:55.758Z,0.73
2022-10-17T00:13:22.773Z,0.70
2022-10-17T00:15:49.785Z,0.70
2022-10-17T00:18:16.764Z,0.80
2022-10-17T00:20:43.781Z,0.90
2022-10-17T00:23:10.815Z,0.80
2022-10-17T00:25:37.739Z,0.88
2022-10-17T00:28:04.725Z,0.90
2022-10-17T00:30:32.798Z,0.90
2022-10-17T00:32:59.716Z,0.80
2022-10-17T00:35:26.653Z,1.10
2022-10-17T00:37:53.601Z,0.82
2022-10-17T00:40:20.615Z,0.70
2022-10-17T00:42:48.107Z,1.23
2022-10-17T00:45:21.181Z,0.63
2022-10-17T00:47:56.253Z,0.60
2022-10-17T00:50:24.310Z,1.10
2022-10-17T00:52:52.765Z,0.90
2022-10-17T00:55:29.249Z,1.00
2022-10-17T00:57:58.161Z,0.60
2022-10-17T01:00:25.648Z,1.05
2022-10-17T01:02:52.871Z,1.23
2022-10-17T01:05:20.374Z,0.80
2022-10-17T01:07:49.891Z,0.63
2022-10-17T01:10:17.803Z,1.00
2022-10-17T01:12:52.386Z,0.80
2022-10-17T01:15:43.641Z,0.73
2022-10-17T01:18:33.714Z,0.90
2022-10-17T01:21:41.021Z,0.82
2022-10-17T01:24:16.514Z,1.00
2022-10-17T01:27:33.325Z,0.70
2022-10-17T01:30:16.221Z,0.70
2022-10-17T01:32:52.810Z,0.57
2022-10-17T01:35:50.297Z,0.80
2022-10-17T01:38:42.570Z,0.90
2022-10-17T01:41:43.829Z,0.60
2022-10-17T01:44:48.753Z,0.95
2022-10-17T01:47:21.986Z,0.80
2022-10-17T01:49:51.922Z,0.85
2022-10-17T01:52:25.315Z,0.68
2022-10-17T01:55:06.575Z,0.70
2022-10-17T01:57:42.818Z,0.73
2022-10-17T02:00:15.467Z,0.52
2022-10-17T02:02:45.502Z,0.95
2022-10-17T02:05:12.638Z,0.70
2022-10-17T02:07:42.120Z,0.90
2022-10-17T02:10:26.377Z,1.67
2022-10-17T02:13:25.634Z,0.77
2022-10-17T02:16:22.044Z,0.50
2022-10-17T02:18:57.729Z,0.60
2022-10-17T02:21:46.234Z,0.75
2022-10-17T02:24:17.113Z,0.50
2022-10-17T02:26:57.680Z,0.77
2022-10-17T02:30:03.993Z,0.57
2022-10-17T02:33:01.681Z,0.65
2022-10-17T02:35:33.476Z,0.38
2022-10-17T02:38:03.767Z,0.70
2022-10-17T02:40:31.994Z,0.63
2022-10-17T02:43:03.251Z,0.50
2022-10-17T02:45:35.846Z,0.70
2022-10-17T02:48:25.547Z,0.60
2022-10-17T02:51:19.316Z,0.45
2022-10-17T02:53:54.253Z,0.60
2022-10-17T02:56:22.045Z,0.50
2022-10-17T02:58:58.484Z,0.70
2022-10-17T03:01:26.497Z,0.70
2022-10-17T03:04:12.907Z,1.00
2022-10-17T03:06:41.441Z,0.60
2022-10-17T03:09:08.846Z,0.52
2022-10-17T03:11:35.764Z,0.70
2022-10-17T03:14:02.720Z,0.73
2022-10-17T03:16:29.849Z,0.93
2022-10-17T03:18:56.826Z,0.80
2022-10-17T03:21:23.786Z,0.75
2022-10-17T03:23:52.060Z,0.90
2022-10-17T03:26:21.073Z,0.75
2022-10-17T03:28:50.670Z,0.80
2022-10-17T03:31:20.896Z,0.77
2022-10-17T03:33:50.100Z,0.52
2022-10-17T03:36:19.160Z,0.75
2022-10-17T03:38:48.192Z,0.80
2022-10-17T03:41:16.981Z,0.63
2022-10-17T03:43:43.922Z,0.82
2022-10-17T03:46:10.931Z,0.50
2022-10-17T03:48:38.434Z,0.60
2022-10-17T03:51:09.487Z,0.77
2022-10-17T03:53:44.696Z,0.80
2022-10-17T03:56:23.453Z,0.75
2022-10-17T03:58:57.195Z,0.60
2022-10-17T04:01:24.822Z,0.88
2022-10-17T04:03:55.216Z,0.80
2022-10-17T04:06:23.152Z,0.65
2022-10-17T04:08:50.644Z,0.80
2022-10-17T04:11:22.889Z,0.82
2022-10-17T04:13:55.679Z,0.85
2022-10-17T04:16:23.887Z,0.70
2022-10-17T04:18:59.608Z,0.65
2022-10-17T04:24:01.179Z,0.70
2022-10-17T04:26:42.766Z,0.50
2022-10-17T04:29:11.638Z,0.80
2022-10-17T04:31:39.742Z,0.90
2022-10-17T04:34:48.087Z,0.77
2022-10-17T04:37:15.568Z,0.90
2022-10-17T04:39:44.076Z,0.93
2022-10-17T04:42:11.213Z,0.88
2022-10-17T04:44:38.264Z,0.70
2022-10-17T04:47:05.259Z,0.65
2022-10-17T04:49:32.320Z,0.47
2022-10-17T04:52:07.522Z,0.52
2022-10-17T04:54:43.544Z,0.73
2022-10-17T04:57:12.977Z,0.90
2022-10-17T04:59:41.262Z,0.73
2022-10-17T05:02:22.689Z,0.77
2022-10-17T05:04:50.806Z,1.20
2022-10-17T05:07:17.963Z,1.27
2022-10-17T05:09:58.920Z,1.92
2022-10-17T05:12:26.849Z,0.95
2022-10-17T05:14:54.311Z,0.73
2022-10-17T05:17:22.827Z,1.13
2022-10-17T05:19:50.152Z,0.80
2022-10-17T05:22:17.255Z,0.88
2022-10-17T05:24:44.326Z,0.80
2022-10-17T05:27:11.832Z,0.93
2022-10-17T05:29:39.748Z,0.40
2022-10-17T05:32:16.269Z,0.90
2022-10-17T05:34:43.585Z,0.85
2022-10-17T05:37:11.180Z,0.70
2022-10-17T05:39:39.369Z,0.88
2022-10-17T05:42:07.865Z,0.95
2022-10-17T05:44:35.807Z,0.80
2022-10-17T05:47:03.118Z,0.68
2022-10-17T05:49:44.695Z,0.60
2022-10-17T05:52:13.717Z,0.98
2022-10-17T05:54:55.344Z,1.02
2022-10-17T05:57:26.265Z,0.60
2022-10-17T05:59:55.018Z,0.60
2022-10-17T06:02:22.215Z,0.70
2022-10-17T06:04:50.350Z,0.70
2022-10-17T06:07:19.309Z,0.70
2022-10-17T06:09:47.412Z,0.90
2022-10-17T06:12:15.255Z,0.85
2022-10-17T06:14:43.713Z,0.77
2022-10-17T06:17:16.079Z,0.93
2022-10-17T06:19:44.971Z,1.23
2022-10-17T06:22:14.616Z,2.55
2022-10-17T06:24:42.438Z,2.03
2022-10-17T06:27:11.935Z,2.10
2022-10-17T06:29:40.545Z,2.85
2022-10-17T06:32:09.977Z,3.15
2022-10-17T06:34:40.733Z,3.47
2022-10-17T06:37:07.771Z,3.70
2022-10-17T06:39:36.633Z,4.53
2022-10-17T06:42:07.990Z,5.53
2022-10-17T06:44:46.405Z,5.68
2022-10-17T06:47:37.675Z,5.55
2022-10-17T06:50:16.951Z,5.85
2022-10-17T06:53:02.620Z,4.30
2022-10-17T06:55:53.896Z,2.40
2022-10-17T06:58:32.203Z,1.70
2022-10-17T07:01:15.545Z,1.70
2022-10-17T07:03:48.541Z,1.85
2022-10-17T07:06:16.015Z,1.50
2022-10-17T07:08:45.229Z,1.65
2022-10-17T07:11:20.602Z,2.47
2022-10-17T07:13:49.866Z,2.85
2022-10-17T07:16:17.348Z,2.70
2022-10-17T07:18:50.756Z,2.63
2022-10-17T07:21:18.847Z,2.60
2022-10-17T07:23:46.323Z,1.80
2022-10-17T07:26:16.064Z,1.60
2022-10-17T07:28:46.301Z,1.30
2022-10-17T07:31:25.572Z,1.35
2022-10-17T07:33:52.537Z,1.27
2022-10-17T07:36:20.567Z,2.00
2022-10-17T07:38:47.674Z,2.38
2022-10-17T07:41:19.190Z,3.00
2022-10-17T07:43:49.095Z,2.28
2022-10-17T07:46:20.161Z,2.78
2022-10-17T07:48:47.522Z,2.78
2022-10-17T07:51:14.687Z,3.28
2022-10-17T07:53:46.422Z,2.03
2022-10-17T07:56:15.937Z,3.22
2022-10-17T07:58:42.938Z,2.90
2022-10-17T08:01:15.405Z,2.97
2022-10-17T08:03:45.254Z,2.80
2022-10-17T08:06:13.083Z,1.77
2022-10-17T08:08:40.996Z,2.53
2022-10-17T08:11:12.099Z,2.08
2022-10-17T08:13:40.546Z,2.38
2022-10-17T08:16:10.769Z,2.53
2022-10-17T08:18:42.227Z,2.10
2022-10-17T08:21:10.116Z,1.98
2022-10-17T08:23:37.862Z,2.20
2022-10-17T08:26:10.309Z,1.83
2022-10-17T08:28:41.061Z,2.10
2022-10-17T08:31:15.531Z,2.00
2022-10-17T08:33:42.934Z,1.40
2022-10-17T08:36:10.346Z,1.38
2022-10-17T08:38:43.048Z,1.20
2022-10-17T08:41:43.396Z,1.60
2022-10-17T08:44:47.525Z,1.00
2022-10-17T08:47:21.264Z,1.35
2022-10-17T08:49:57.345Z,1.50
2022-10-17T08:52:53.974Z,1.05
2022-10-17T08:55:48.279Z,1.05
2022-10-17T08:58:21.187Z,0.90
2022-10-17T09:01:29.367Z,1.30
2022-10-17T09:04:43.223Z,0.95
2022-10-17T09:07:57.807Z,5.85
2022-10-17T09:10:53.929Z,1.73
2022-10-17T09:14:17.417Z,1.10
2022-10-17T09:17:08.613Z,0.73
2022-10-17T09:19:44.993Z,0.70
2022-10-17T09:22:21.793Z,0.90
2022-10-17T09:24:56.305Z,0.63
2022-10-17T09:27:44.731Z,0.90
2022-10-17T09:30:44.725Z,0.55
2022-10-17T09:33:28.432Z,0.50
2022-10-17T09:36:09.594Z,0.60
2022-10-17T09:38:53.492Z,0.73
2022-10-17T09:41:44.722Z,0.80
2022-10-17T09:44:24.650Z,0.77
2022-10-17T09:47:22.128Z,0.50
2022-10-17T09:49:50.299Z,0.60
2022-10-17T09:52:35.614Z,0.52
2022-10-17T09:55:18.255Z,0.50
2022-10-17T09:57:58.359Z,0.95
2022-10-17T10:00:36.470Z,0.70
2022-10-17T10:03:10.941Z,1.05
2022-10-17T10:05:38.168Z,0.90
2022-10-17T10:08:19.570Z,0.75
2022-10-17T10:10:46.925Z,1.48
2022-10-17T10:13:13.714Z,1.02
2022-10-17T10:15:44.643Z,0.50
2022-10-17T10:21:18.374Z,0.80
2022-10-17T10:24:12.388Z,0.90
2022-10-17T10:26:46.341Z,0.52
2022-10-17T10:29:32.172Z,0.60
2022-10-17T10:32:18.802Z,0.85
2022-10-17T10:35:18.930Z,0.85
2022-10-17T10:37:54.299Z,0.90
2022-10-17T10:40:33.472Z,0.65
2022-10-17T10:43:05.369Z,1.08
2022-10-17T10:45:54.127Z,0.43
2022-10-17T10:48:34.545Z,0.88
2022-10-17T10:51:09.762Z,0.77
2022-10-17T10:53:59.504Z,0.60
2022-10-17T10:56:34.226Z,1.52
2022-10-17T10:59:19.280Z,0.77
2022-10-17T11:01:46.169Z,0.70
2022-10-17T11:04:29.526Z,0.88
2022-10-17T11:07:24.938Z,0.80
2022-10-17T11:10:15.243Z,0.60
2022-10-17T11:13:09.909Z,0.68
2022-10-17T11:16:02.386Z,0.75
2022-10-17T11:18:39.442Z,0.50
2022-10-17T11:21:23.791Z,1.30
2022-10-17T11:24:24.928Z,0.95
2022-10-17T11:27:03.196Z,0.70
2022-10-17T11:29:39.683Z,0.70
2022-10-17T11:32:21.376Z,0.90
2022-10-17T11:37:24.389Z,0.85
2022-10-17T11:39:58.772Z,0.88
2022-10-17T11:42:42.071Z,0.90
2022-10-17T11:45:17.275Z,0.90
2022-10-17T11:47:54.200Z,0.98
2022-10-17T11:53:31.517Z,0.77
2022-10-17T11:56:00.674Z,0.90
2022-10-17T11:58:39.551Z,1.02
2022-10-17T12:01:10.799Z,0.57
2022-10-17T12:07:25.575Z,0.90
2022-10-17T12:10:37.061Z,0.82
2022-10-17T12:13:48.232Z,0.55
2022-10-17T12:16:21.243Z,0.57
2022-10-17T12:19:11.097Z,0.50
2022-10-17T12:21:59.156Z,0.32
2022-10-17T12:24:37.705Z,0.93
2022-10-17T12:27:38.683Z,0.85
2022-10-17T12:30:12.525Z,1.15
2022-10-17T12:36:27.633Z,0.85
2022-10-17T12:39:03.743Z,1.00
2022-10-17T12:41:41.151Z,0.60
2022-10-17T12:44:14.787Z,0.60
2022-10-17T12:46:58.644Z,1.15
2022-10-17T12:49:39.400Z,0.80
2022-10-17T12:52:35.132Z,1.50
2022-10-17T12:55:18.105Z,0.70
2022-10-17T12:58:05.781Z,1.17
2022-10-17T13:01:22.577Z,1.88
2022-10-17T13:03:51.919Z,4.28
2022-10-17T13:06:27.908Z,1.13
2022-10-17T13:09:10.651Z,1.70
2022-10-17T13:11:41.274Z,1.50
2022-10-17T13:14:14.823Z,0.97
2022-10-17T13:16:59.949Z,1.25
2022-10-17T13:19:33.565Z,1.58
2022-10-17T13:22:07.338Z,1.20
2022-10-17T13:24:38.901Z,1.50
2022-10-17T13:29:52.888Z,1.85
2022-10-17T13:32:20.228Z,1.20
2022-10-17T13:35:14.930Z,1.35
2022-10-17T13:37:48.194Z,1.63
2022-10-17T13:40:44.579Z,1.52
2022-10-17T13:43:24.388Z,1.10
2022-10-17T13:46:19.190Z,1.27
2022-10-17T13:48:51.575Z,1.98
2022-10-17T13:51:23.757Z,1.65
2022-10-17T13:53:51.116Z,1.60
2022-10-17T13:56:32.419Z,1.48
2022-10-17T13:59:24.413Z,1.40
2022-10-17T14:01:53.052Z,1.20
2022-10-17T14:04:22.800Z,1.40
2022-10-17T14:06:52.249Z,1.60
2022-10-17T14:09:28.986Z,1.02
2022-10-17T14:12:12.799Z,1.23
2022-10-17T14:15:05.549Z,1.00
2022-10-17T14:17:31.792Z,1.10
2022-10-17T14:23:17.621Z,0.80
2022-10-17T14:28:26.737Z,0.90
2022-10-17T14:30:57.436Z,1.45
2022-10-17T14:33:29.863Z,0.70
2022-10-17T14:36:00.589Z,0.80
2022-10-17T14:38:29.576Z,1.13
2022-10-17T14:41:43.281Z,1.27
2022-10-17T14:44:23.650Z,0.95
2022-10-17T14:46:59.548Z,0.93
2022-10-17T14:49:40.652Z,1.30
2022-10-17T14:52:18.200Z,1.25
2022-10-17T14:54:50.274Z,1.15
2022-10-17T14:57:27.083Z,1.63
2022-10-17T14:59:57.950Z,1.00
2022-10-17T15:02:30.747Z,1.40
2022-10-17T15:05:00.896Z,0.90
2022-10-17T15:07:28.319Z,1.00
2022-10-17T15:09:55.610Z,1.17
2022-10-17T15:12:25.527Z,0.70
2022-10-17T15:14:56.803Z,1.00
2022-10-17T15:17:29.330Z,1.40
2022-10-17T15:19:57.266Z,0.93
2022-10-17T15:22:25.107Z,1.52
2022-10-17T15:24:52.190Z,1.38
2022-10-17T15:27:26.393Z,1.13
2022-10-17T15:29:53.448Z,0.90
2022-10-17T15:32:20.609Z,1.10
2022-10-17T15:34:47.599Z,1.27
2022-10-17T15:37:22.841Z,1.17
2022-10-17T15:39:54.966Z,1.17
2022-10-17T15:42:27.726Z,1.27
2022-10-17T15:44:55.783Z,0.85
2022-10-17T15:47:25.405Z,0.90
2022-10-17T15:49:53.854Z,0.70
2022-10-17T15:52:21.826Z,1.00
2022-10-17T15:54:48.947Z,1.23
2022-10-17T15:57:29.226Z,1.25
2022-10-17T15:59:59.316Z,1.10
2022-10-17T16:02:26.747Z,0.82
2022-10-17T16:04:54.244Z,1.02
2022-10-17T16:07:21.902Z,2.05
2022-10-17T16:09:48.988Z,1.25
2022-10-17T16:12:27.053Z,0.93
2022-10-17T16:14:54.239Z,0.82
2022-10-17T16:17:21.220Z,0.90
2022-10-17T16:19:48.279Z,1.27
2022-10-17T16:22:30.164Z,1.30
2022-10-17T16:25:24.648Z,1.70
2022-10-17T16:28:00.440Z,1.40
2022-10-17T16:30:30.506Z,0.90
2022-10-17T16:33:03.277Z,0.80
2022-10-17T16:35:34.749Z,1.15
2022-10-17T16:38:07.079Z,1.10
2022-10-17T16:40:37.867Z,1.05
2022-10-17T16:43:05.074Z,1.10
2022-10-17T16:45:32.210Z,0.98
2022-10-17T16:47:59.271Z,1.30
2022-10-17T16:50:26.526Z,2.20
2022-10-17T16:52:53.480Z,0.90
2022-10-17T16:55:20.572Z,1.00
2022-10-17T16:57:49.228Z,1.52
2022-10-17T17:00:17.997Z,1.10
2022-10-17T17:02:48.377Z,1.33
2022-10-17T17:05:15.787Z,1.38
2022-10-17T17:07:42.874Z,1.30
2022-10-17T17:10:10.183Z,1.65
2022-10-17T17:12:37.312Z,1.02
2022-10-17T17:15:04.789Z,1.30
2022-10-17T17:17:48.734Z,1.05
2022-10-17T17:20:18.345Z,1.60
2022-10-17T17:22:45.347Z,1.17
2022-10-17T17:25:12.327Z,2.30
2022-10-17T17:27:39.245Z,1.17
2022-10-17T17:30:07.750Z,1.17
2022-10-17T17:32:34.740Z,1.42
2022-10-17T17:35:02.274Z,1.30
2022-10-17T17:37:29.780Z,1.30
2022-10-17T17:39:56.863Z,1.40
2022-10-17T17:42:23.935Z,1.10
2022-10-17T17:44:51.062Z,0.80
2022-10-17T17:47:18.547Z,2.47
2022-10-17T17:49:45.571Z,1.33
2022-10-17T17:52:12.652Z,1.50
2022-10-17T17:54:40.962Z,1.25
2022-10-17T17:57:08.200Z,1.33
2022-10-17T17:59:44.661Z,1.10
2022-10-17T18:02:15.086Z,1.42
2022-10-17T18:04:44.510Z,1.10
2022-10-17T18:07:11.541Z,1.60
2022-10-17T18:09:38.582Z,1.70
2022-10-17T18:12:08.229Z,1.50
2022-10-17T18:15:00.017Z,1.55
2022-10-17T18:17:46.404Z,1.90
2022-10-17T18:20:42.079Z,1.20
2022-10-17T18:23:10.675Z,1.10
2022-10-17T18:25:37.633Z,1.35
2022-10-17T18:28:10.074Z,1.95
2022-10-17T18:30:38.902Z,1.38
2022-10-17T18:33:07.518Z,1.50
2022-10-17T18:35:35.393Z,1.08
2022-10-17T18:38:05.324Z,2.05
2022-10-17T18:40:33.158Z,1.38
2022-10-17T18:43:00.772Z,1.13
2022-10-17T18:45:28.018Z,1.13
2022-10-17T18:47:55.053Z,1.45
2022-10-17T18:50:26.672Z,1.40
2022-10-17T18:55:25.061Z,2.08
2022-10-17T18:57:55.047Z,1.70
2022-10-17T19:00:25.084Z,1.92
2022-10-17T19:02:52.231Z,1.70
2022-10-17T19:05:19.331Z,1.70
2022-10-17T19:07:46.572Z,1.65
2022-10-17T19:10:19.043Z,1.70
2022-10-17T19:12:52.641Z,1.75
2022-10-17T19:15:25.140Z,1.70
2022-10-17T19:18:02.988Z,1.83
2022-10-17T19:20:33.190Z,1.52
2022-10-17T19:23:00.537Z,1.42
2022-10-17T19:25:32.431Z,1.70
2022-10-17T19:27:59.659Z,1.00
2022-10-17T19:30:26.582Z,1.25
2022-10-17T19:32:53.568Z,1.30
2022-10-17T19:35:20.497Z,1.33
2022-10-17T19:37:47.536Z,1.60
2022-10-17T19:40:14.648Z,1.67
2022-10-17T19:42:41.653Z,1.77
2022-10-17T19:45:09.978Z,2.67
2022-10-17T19:47:38.441Z,2.92
2022-10-17T19:50:06.843Z,2.97
2022-10-17T19:52:34.252Z,2.65
2022-10-17T19:55:01.351Z,2.67
2022-10-17T19:57:28.303Z,2.50
2022-10-17T19:59:56.151Z,2.90
2022-10-17T20:02:23.835Z,2.78
2022-10-17T20:05:00.110Z,2.72
2022-10-17T20:07:39.804Z,2.47
2022-10-17T20:10:07.734Z,2.40
2022-10-17T20:12:34.870Z,2.63
2022-10-17T20:15:01.949Z,2.33
2022-10-17T20:17:28.923Z,2.72
2022-10-17T20:19:55.877Z,2.55
2022-10-17T20:22:22.824Z,1.67
2022-10-17T20:24:49.937Z,1.90
2022-10-17T20:27:17.157Z,2.15
2022-10-17T20:29:44.282Z,1.60
2022-10-17T20:32:11.198Z,2.20
2022-10-17T20:34:38.314Z,1.80
2022-10-17T20:37:05.473Z,1.77
2022-10-17T20:39:32.620Z,1.90
2022-10-17T20:41:59.692Z,2.08
2022-10-17T20:44:26.712Z,2.00
2022-10-17T20:47:01.598Z,2.55
2022-10-17T20:49:31.745Z,2.13
2022-10-17T20:52:00.599Z,2.00
2022-10-17T20:54:28.476Z,2.33
2022-10-17T20:56:57.806Z,1.73
2022-10-17T20:59:28.145Z,2.15
2022-10-17T21:01:55.263Z,1.95
2022-10-17T21:04:44.695Z,2.10
2022-10-17T21:07:09.263Z,2.58
2022-10-17T21:09:36.200Z,1.67
2022-10-17T21:12:05.102Z,1.80
2022-10-17T21:14:33.334Z,1.75
2022-10-17T21:17:04.669Z,2.80
2022-10-17T21:19:32.615Z,1.83
2022-10-17T21:21:59.704Z,2.00
2022-10-17T21:24:26.659Z,1.80
2022-10-17T21:26:55.800Z,1.95
2022-10-17T21:29:23.878Z,1.77
2022-10-17T21:31:51.393Z,1.92
2022-10-17T21:34:23.900Z,2.00
2022-10-17T21:36:51.856Z,2.40
2022-10-17T21:39:19.120Z,1.85
2022-10-17T21:41:46.095Z,1.77
2022-10-17T21:44:16.765Z,1.75
2022-10-17T21:46:44.489Z,1.75
2022-10-17T21:49:14.742Z,1.92
2022-10-17T21:51:42.524Z,2.08
2022-10-17T21:54:09.725Z,1.60
2022-10-17T21:56:37.239Z,1.88
2022-10-17T21:59:05.522Z,1.98
2022-10-17T22:01:39.709Z,1.52
2022-10-17T22:04:12.107Z,1.90
2022-10-17T22:06:41.924Z,1.70
2022-10-17T22:09:17.635Z,1.85
2022-10-17T22:11:49.644Z,1.83
2022-10-17T22:14:20.036Z,1.80
2022-10-17T22:16:47.991Z,1.42
2022-10-17T22:19:24.343Z,1.80
2022-10-17T22:21:51.551Z,1.05
2022-10-17T22:26:48.634Z,1.52
2022-10-17T22:29:16.112Z,2.60
2022-10-17T22:31:43.056Z,2.50
2022-10-17T22:34:13.598Z,2.15
2022-10-17T22:36:40.656Z,2.08
2022-10-17T22:39:07.676Z,2.00
2022-10-17T22:41:34.743Z,2.03
2022-10-17T22:44:01.699Z,2.03
2022-10-17T22:46:29.065Z,2.22
2022-10-17T22:48:56.139Z,2.42
2022-10-17T22:53:50.925Z,2.22
2022-10-17T22:56:20.661Z,2.03
2022-10-17T22:58:48.481Z,2.38
2022-10-17T23:01:22.927Z,2.00
2022-10-17T23:03:51.109Z,2.00
2022-10-17T23:06:18.699Z,2.42
2022-10-17T23:08:46.117Z,1.52
2022-10-17T23:11:13.313Z,1.92
2022-10-17T23:13:40.911Z,1.90
2022-10-17T23:16:08.429Z,1.80
2022-10-17T23:18:37.242Z,1.90
2022-10-17T23:21:04.786Z,1.70
2022-10-17T23:23:31.849Z,2.20
2022-10-17T23:26:12.452Z,2.25
2022-10-17T23:28:40.481Z,1.55
2022-10-17T23:31:20.655Z,1.60
2022-10-17T23:33:49.966Z,2.10
2022-10-17T23:36:20.107Z,2.25
2022-10-17T23:38:48.025Z,1.92
2022-10-17T23:41:15.658Z,2.17
2022-10-17T23:43:43.275Z,1.70
2022-10-17T23:46:10.999Z,1.63
2022-10-17T23:48:38.934Z,2.05
2022-10-17T23:51:07.120Z,1.65
2022-10-17T23:53:34.446Z,2.22
2022-10-17T23:56:01.538Z,1.88
2022-10-17T23:58:29.356Z,2.00
